Time;durP1;ratioP1;P1;durP2;ratioP2;P2;SDS_P1;SDS_P2;PMS_P1;PMS_P2;Temp;Humidity;BMP_temperature;BMP_pressure;BME280_temperature;BME280_humidity;BME280_pressure;Samples;Min_cycle;Max_cycle;Signal;HPM_P1;HPM_P2
2023/03/06 00:00:43;;;;;;;10.07;2.80;;;;;;;1.23;58.20;100359.41;4973841;28;20060;-54
2023/03/06 00:03:08;;;;;;;7.75;2.88;;;;;;;1.25;57.85;100357.63;4975559;28;20038;-52
2023/03/06 00:05:34;;;;;;;7.00;3.05;;;;;;;1.22;58.46;100348.16;4984453;28;20084;-53
2023/03/06 00:07:59;;;;;;;10.07;3.28;;;;;;;1.22;58.05;100348.16;4974446;28;20037;-53
2023/03/06 00:10:28;;;;;;;9.90;3.40;;;;;;;1.20;58.00;100348.22;4972901;28;20100;-51
2023/03/06 00:13:00;;;;;;;10.25;3.22;;;;;;;1.21;58.31;100344.75;4972617;28;20142;-51
2023/03/06 00:15:28;;;;;;;7.10;2.65;;;;;;;1.21;57.91;100344.75;4984035;28;20033;-52
2023/03/06 00:17:54;;;;;;;8.55;3.30;;;;;;;1.21;58.29;100336.97;4973766;28;20407;-51
2023/03/06 00:20:22;;;;;;;8.80;2.30;;;;;;;1.25;58.03;100342.09;4967904;28;20029;-54
2023/03/06 00:22:47;;;;;;;9.48;2.42;;;;;;;1.27;58.45;100332.53;4981029;28;20035;-52
2023/03/06 00:25:16;;;;;;;4.70;2.28;;;;;;;1.27;58.65;100329.94;4977162;28;20112;-52
2023/03/06 00:27:42;;;;;;;7.10;2.60;;;;;;;1.30;58.57;100332.44;4976904;28;20042;-50
2023/03/06 00:30:11;;;;;;;8.52;2.30;;;;;;;1.27;59.17;100324.75;4976543;28;20588;-52
2023/03/06 00:32:37;;;;;;;10.07;3.00;;;;;;;1.24;59.13;100324.81;4976482;28;20120;-50
2023/03/06 00:35:03;;;;;;;5.20;1.90;;;;;;;1.24;59.69;100319.63;4977942;28;20137;-51
2023/03/06 00:37:28;;;;;;;3.63;1.85;;;;;;;1.25;59.87;100321.34;4978745;28;20099;-51
2023/03/06 00:39:54;;;;;;;3.55;1.70;;;;;;;1.27;59.84;100315.22;4979914;28;20030;-55
2023/03/06 00:42:19;;;;;;;9.45;3.15;;;;;;;1.26;59.54;100312.69;4983239;28;20069;-51
2023/03/06 00:44:45;;;;;;;8.38;2.33;;;;;;;1.24;60.21;100314.47;4970946;28;21776;-51
2023/03/06 00:47:12;;;;;;;6.53;2.85;;;;;;;1.25;60.07;100310.97;4969025;28;20038;-54
2023/03/06 00:49:38;;;;;;;8.25;2.08;;;;;;;1.23;60.17;100313.59;4979452;28;20076;-55
2023/03/06 00:52:05;;;;;;;7.90;2.30;;;;;;;1.26;60.14;100307.50;4979279;28;20117;-52
2023/03/06 00:54:30;;;;;;;5.20;1.90;;;;;;;1.30;59.90;100316.88;4983900;28;20104;-52
2023/03/06 00:56:56;;;;;;;7.35;2.42;;;;;;;1.30;60.19;100317.75;4981877;28;20459;-53
2023/03/06 00:59:21;;;;;;;5.80;2.13;;;;;;;1.34;60.16;100311.59;4977759;28;20051;-54
2023/03/06 01:01:47;;;;;;;8.60;2.08;;;;;;;1.43;59.91;100314.81;4977981;28;20092;-51
2023/03/06 01:04:13;;;;;;;7.15;2.22;;;;;;;1.46;59.61;100305.19;4974694;28;20060;-53
2023/03/06 01:06:39;;;;;;;7.72;2.50;;;;;;;1.47;60.02;100306.91;4973123;28;20094;-53
2023/03/06 01:09:04;;;;;;;5.85;2.40;;;;;;;1.43;60.22;100294.94;5001525;28;20034;-52
2023/03/06 01:11:30;;;;;;;6.45;2.50;;;;;;;1.41;60.43;100294.13;4973990;28;20404;-55
2023/03/06 01:13:56;;;;;;;7.50;2.08;;;;;;;1.38;60.56;100294.19;4972433;28;20765;-54
2023/03/06 01:16:22;;;;;;;7.88;3.03;;;;;;;1.38;60.95;100289.00;4979960;28;20052;-51
2023/03/06 01:18:49;;;;;;;7.43;3.15;;;;;;;1.35;61.48;100289.09;4972217;28;20034;-52
2023/03/06 01:21:14;;;;;;;8.68;2.50;;;;;;;1.32;61.19;100276.22;4977842;28;20083;-51
2023/03/06 01:23:40;;;;;;;8.30;2.95;;;;;;;1.33;61.37;100276.19;4978440;28;20471;-51
2023/03/06 01:26:06;;;;;;;9.73;3.33;;;;;;;1.31;62.00;100275.38;4975932;28;20041;-54
2023/03/06 01:28:36;;;;;;;7.63;2.38;;;;;;;1.27;62.24;100273.75;4971831;28;20034;-52
2023/03/06 01:31:02;;;;;;;11.75;2.47;;;;;;;1.29;62.33;100271.09;4972643;28;20038;-51
2023/03/06 01:33:28;;;;;;;3.08;1.50;;;;;;;1.31;62.43;100266.72;4972217;28;20422;-51
2023/03/06 01:35:53;;;;;;;6.80;1.80;;;;;;;1.31;62.84;100264.13;4979176;28;20097;-52
2023/03/06 01:38:19;;;;;;;9.10;1.88;;;;;;;1.34;62.82;100270.13;4977658;28;20111;-53
2023/03/06 01:40:45;;;;;;;5.78;1.75;;;;;;;1.34;63.64;100261.47;4962348;28;20077;-55
2023/03/06 01:43:22;;;;;;;5.82;1.67;;;;;;;1.36;63.53;100262.28;4972612;28;20030;-53
2023/03/06 01:45:48;;;;;;;9.23;1.80;;;;;;;1.36;63.89;100259.69;4979075;28;20064;-52
2023/03/06 01:48:14;;;;;;;5.05;1.60;;;;;;;1.35;63.91;100255.38;4979576;28;20045;-52
2023/03/06 01:50:39;;;;;;;4.28;1.95;;;;;;;1.36;64.02;100257.09;4970591;28;20041;-51
2023/03/06 01:53:06;;;;;;;10.32;2.10;;;;;;;1.32;64.44;100255.47;4973864;28;20041;-54
2023/03/06 01:55:33;;;;;;;4.95;1.45;;;;;;;1.31;64.83;100249.44;4973791;28;20107;-53
2023/03/06 01:58:04;;;;;;;5.20;1.45;;;;;;;1.34;64.89;100245.91;4974927;28;20117;-50
2023/03/06 02:00:30;;;;;;;3.20;1.45;;;;;;;1.33;65.26;100249.41;4973624;28;20159;-51
2023/03/06 02:02:59;;;;;;;7.22;1.38;;;;;;;1.31;65.41;100243.41;4977955;28;20073;-52
2023/03/06 02:05:24;;;;;;;9.82;1.67;;;;;;;1.29;65.48;100240.84;4974336;28;20067;-52
2023/03/06 02:07:52;;;;;;;5.38;2.10;;;;;;;1.26;66.41;100242.69;4978967;28;20088;-51
2023/03/06 02:10:19;;;;;;;4.68;1.33;;;;;;;1.24;66.08;100239.28;4974065;28;20056;-51
2023/03/06 02:12:46;;;;;;;4.00;1.50;;;;;;;1.21;66.37;100243.66;4973222;28;20049;-51
2023/03/06 02:15:14;;;;;;;2.05;1.15;;;;;;;1.19;66.01;100234.25;4970920;28;20068;-54
2023/03/06 02:17:41;;;;;;;6.28;1.65;;;;;;;1.15;66.91;100227.44;4976493;28;20039;-54
2023/03/06 02:20:26;;;;;;;3.13;2.20;;;;;;;1.11;66.88;100226.66;4977036;28;21315;-52
2023/03/06 02:23:05;;;;;;;4.00;1.27;;;;;;;1.13;67.11;100224.88;4975812;28;20038;-50
2023/03/06 02:25:37;;;;;;;6.90;1.00;;;;;;;1.18;67.33;100211.78;4978059;28;20025;-52
2023/03/06 02:28:04;;;;;;;1.70;0.70;;;;;;;1.20;67.31;100221.22;4971148;28;20039;-53
2023/03/06 02:30:30;;;;;;;2.65;0.95;;;;;;;1.21;67.28;100209.13;4974065;28;20051;-53
2023/03/06 02:32:56;;;;;;;4.22;1.27;;;;;;;1.21;66.86;100207.38;4973065;28;20036;-51
2023/03/06 02:35:25;;;;;;;2.70;0.90;;;;;;;1.27;67.27;100208.09;4972298;28;20063;-50
2023/03/06 02:37:52;;;;;;;4.97;1.38;;;;;;;1.27;67.07;100200.34;4976198;28;20047;-54
2023/03/06 02:40:20;;;;;;;7.25;0.95;;;;;;;1.28;67.31;100205.47;4979102;28;20048;-51
2023/03/06 02:42:54;;;;;;;7.68;1.58;;;;;;;1.31;67.23;100202.78;4968506;28;20479;-56
2023/03/06 02:45:28;;;;;;;3.03;0.95;;;;;;;1.33;67.59;100190.63;4969177;28;20080;-54
2023/03/06 02:47:53;;;;;;;4.60;2.03;;;;;;;1.32;67.63;100193.25;4971372;28;20040;-53
2023/03/06 02:50:19;;;;;;;2.03;0.88;;;;;;;1.37;68.05;100186.22;4975508;28;20083;-53
2023/03/06 02:52:44;;;;;;;3.90;1.08;;;;;;;1.40;67.81;100190.44;4970587;28;20042;-54
2023/03/06 02:55:10;;;;;;;2.05;1.20;;;;;;;1.41;68.15;100182.63;4978961;28;20089;-55
2023/03/06 02:57:35;;;;;;;3.85;1.30;;;;;;;1.38;67.98;100182.72;4976364;28;20392;-51
2023/03/06 03:00:01;;;;;;;6.07;1.02;;;;;;;1.37;67.86;100178.44;4970884;28;20056;-54
2023/03/06 03:02:26;;;;;;;5.47;1.13;;;;;;;1.38;68.37;100177.53;4974882;28;20069;-53
2023/03/06 03:04:52;;;;;;;6.47;1.23;;;;;;;1.36;68.23;100177.56;4964766;28;20082;-55
2023/03/06 03:07:17;;;;;;;2.22;1.20;;;;;;;1.37;68.39;100176.66;4973380;28;20081;-51
2023/03/06 03:09:43;;;;;;;4.43;0.90;;;;;;;1.38;68.98;100174.94;4969386;28;20051;-56
2023/03/06 03:12:08;;;;;;;4.55;1.25;;;;;;;1.40;68.27;100164.53;4965034;28;20041;-53
2023/03/06 03:14:34;;;;;;;5.43;0.90;;;;;;;1.38;68.57;100164.56;4972947;28;20018;-50
2023/03/06 03:17:00;;;;;;;3.13;1.10;;;;;;;1.39;68.55;100155.91;4971181;28;20339;-53
2023/03/06 03:19:25;;;;;;;1.60;0.68;;;;;;;1.36;68.88;100149.03;4972253;28;20051;-53
2023/03/06 03:21:50;;;;;;;2.67;0.88;;;;;;;1.33;68.76;100156.94;4977444;28;20045;-51
2023/03/06 03:24:16;;;;;;;4.63;1.10;;;;;;;1.27;69.31;100153.69;4976192;28;20069;-53
2023/03/06 03:26:41;;;;;;;6.47;2.17;;;;;;;1.26;69.69;100158.00;4977143;28;20041;-53
2023/03/06 03:29:08;;;;;;;2.05;0.68;;;;;;;1.27;69.89;100158.84;4972102;28;20042;-52
2023/03/06 03:31:34;;;;;;;6.15;1.52;;;;;;;1.30;69.02;100148.38;4974618;28;20084;-52
2023/03/06 03:33:59;;;;;;;7.55;1.63;;;;;;;1.26;69.48;100150.22;4977017;28;20628;-50
2023/03/06 03:36:26;;;;;;;3.33;1.15;;;;;;;1.27;69.40;100158.84;4975008;28;20075;-51
2023/03/06 03:38:52;;;;;;;4.18;1.85;;;;;;;1.25;69.50;100147.69;4973605;28;20042;-52
2023/03/06 03:41:17;;;;;;;5.80;2.78;;;;;;;1.24;69.88;100141.63;4984741;28;20500;-51
2023/03/06 03:43:43;;;;;;;9.65;3.10;;;;;;;1.23;69.55;100137.34;4970496;28;20068;-55
2023/03/06 03:46:10;;;;;;;10.27;3.25;;;;;;;1.26;69.27;100145.03;4967916;28;20076;-52
2023/03/06 03:48:35;;;;;;;10.43;3.50;;;;;;;1.23;69.59;100139.94;4978466;28;20049;-52
2023/03/06 03:51:10;;;;;;;10.25;4.35;;;;;;;1.21;69.71;100144.34;4981211;28;20053;-52
2023/03/06 03:53:36;;;;;;;15.40;3.72;;;;;;;1.20;69.57;100133.09;4983992;28;20030;-55
2023/03/06 03:56:02;;;;;;;11.30;4.25;;;;;;;1.20;69.95;100137.44;4974922;28;20088;-51
2023/03/06 03:58:28;;;;;;;12.75;4.47;;;;;;;1.21;69.97;100137.41;4978213;28;20033;-51
2023/03/06 04:00:54;;;;;;;13.05;4.38;;;;;;;1.21;70.46;100133.97;4973652;28;20032;-53
2023/03/06 04:03:19;;;;;;;9.23;4.65;;;;;;;1.20;69.92;100140.03;4979920;28;20481;-53
2023/03/06 04:05:44;;;;;;;8.85;4.30;;;;;;;1.17;70.42;100138.38;4970037;28;20077;-54
2023/03/06 04:08:10;;;;;;;15.82;5.32;;;;;;;1.17;70.07;100132.34;4978723;28;20028;-54
2023/03/06 04:10:37;;;;;;;18.13;5.50;;;;;;;1.16;69.97;100131.47;4973504;28;20038;-54
2023/03/06 04:13:04;;;;;;;10.80;4.40;;;;;;;1.18;70.35;100128.88;4972244;28;20025;-52
2023/03/06 04:15:29;;;;;;;14.73;5.40;;;;;;;1.20;70.57;100127.91;4975529;28;20026;-54
2023/03/06 04:17:55;;;;;;;12.35;5.68;;;;;;;1.20;70.26;100127.91;4973066;28;20053;-51
2023/03/06 04:20:20;;;;;;;33.47;13.50;;;;;;;1.22;69.83;100133.03;4973868;28;20129;-55
2023/03/06 04:22:46;;;;;;;12.27;5.85;;;;;;;1.19;70.24;100126.22;4981775;28;20275;-52
2023/03/06 04:25:11;;;;;;;12.50;4.80;;;;;;;1.20;70.22;100125.31;4974556;28;20030;-52
2023/03/06 04:27:37;;;;;;;12.32;4.93;;;;;;;1.21;70.05;100126.19;4975576;28;20122;-52
2023/03/06 04:30:04;;;;;;;11.25;4.40;;;;;;;1.21;70.34;100121.00;4983250;28;20030;-53
2023/03/06 04:32:29;;;;;;;10.88;4.55;;;;;;;1.15;70.67;100124.59;4972757;28;20489;-51
2023/03/06 04:34:55;;;;;;;10.85;4.10;;;;;;;1.14;70.74;100120.31;4977446;28;20110;-54
2023/03/06 04:37:23;;;;;;;8.38;3.22;;;;;;;1.16;70.30;100121.13;4977266;28;20369;-55
2023/03/06 04:39:49;;;;;;;14.43;5.45;;;;;;;1.17;70.68;100122.81;4978793;28;20030;-51
2023/03/06 04:42:14;;;;;;;11.95;3.92;;;;;;;1.18;70.66;100119.34;4973445;28;20060;-53
2023/03/06 04:44:39;;;;;;;13.23;4.18;;;;;;;1.16;70.72;100118.53;4975049;28;20038;-52
2023/03/06 04:47:05;;;;;;;11.40;4.47;;;;;;;1.17;71.16;100116.78;4978477;28;20523;-53
2023/03/06 04:49:31;;;;;;;9.18;4.28;;;;;;;1.14;70.80;100112.53;4984344;28;20050;-52
2023/03/06 04:51:56;;;;;;;22.75;9.50;;;;;;;1.15;70.87;100113.41;4976048;28;20038;-51
2023/03/06 04:54:21;;;;;;;32.38;11.65;;;;;;;1.16;70.57;100115.09;4979531;28;20031;-53
2023/03/06 04:56:47;;;;;;;16.23;6.75;;;;;;;1.18;70.98;100119.34;4977100;28;20057;-55
2023/03/06 04:59:12;;;;;;;9.80;4.80;;;;;;;1.14;71.22;100117.72;4973629;28;20043;-50
2023/03/06 05:01:38;;;;;;;9.05;3.35;;;;;;;1.14;71.05;100112.53;4976392;28;20101;-51
2023/03/06 05:04:04;;;;;;;10.20;4.30;;;;;;;1.15;70.88;100109.06;4971934;28;20142;-54
2023/03/06 05:06:29;;;;;;;11.68;3.90;;;;;;;1.14;70.99;100109.94;4978885;28;20064;-51
2023/03/06 05:08:55;;;;;;;15.55;4.53;;;;;;;1.10;70.81;100105.75;4981845;28;20049;-50
2023/03/06 05:11:20;;;;;;;13.88;4.90;;;;;;;1.11;71.21;100106.59;4978767;28;20043;-51
2023/03/06 05:13:45;;;;;;;10.57;4.15;;;;;;;1.12;70.86;100106.56;4979308;28;20049;-52
2023/03/06 05:16:11;;;;;;;9.68;3.78;;;;;;;1.11;71.24;100102.28;4982324;28;20061;-54
2023/03/06 05:18:37;;;;;;;11.45;3.70;;;;;;;1.12;71.25;100105.69;4977725;28;20097;-53
2023/03/06 05:21:03;;;;;;;9.48;3.72;;;;;;;1.11;70.85;100111.78;4984044;28;20037;-54
2023/03/06 05:23:31;;;;;;;6.68;3.78;;;;;;;1.09;71.25;100109.25;4980301;28;20042;-53
2023/03/06 05:25:58;;;;;;;14.60;4.65;;;;;;;1.07;71.01;100111.03;4983658;28;20496;-54
2023/03/06 05:28:24;;;;;;;13.38;4.65;;;;;;;1.05;71.69;100105.03;4981412;28;20555;-51
2023/03/06 05:30:51;;;;;;;16.63;5.93;;;;;;;1.05;71.48;100105.03;4988524;28;20045;-55
2023/03/06 05:33:16;;;;;;;10.75;4.22;;;;;;;1.02;71.63;100112.88;4976707;28;20060;-56
2023/03/06 05:35:47;;;;;;;14.45;4.15;;;;;;;1.03;71.79;100114.59;4975720;28;20215;-52
2023/03/06 05:38:13;;;;;;;8.68;3.45;;;;;;;1.01;71.38;100117.22;4968973;28;20954;-54
2023/03/06 05:40:40;;;;;;;8.93;3.97;;;;;;;1.02;71.12;100123.25;4978911;28;20046;-51
2023/03/06 05:43:07;;;;;;;5.88;3.00;;;;;;;1.00;71.22;100114.66;4978868;28;20023;-53
2023/03/06 05:45:33;;;;;;;14.40;3.95;;;;;;;0.97;71.84;100117.38;4980210;28;20038;-51
2023/03/06 05:47:59;;;;;;;10.50;3.90;;;;;;;1.00;71.79;100117.25;4978947;28;20043;-51
2023/03/06 05:50:24;;;;;;;12.75;3.88;;;;;;;1.00;71.55;100115.53;4972415;28;20042;-53
2023/03/06 05:52:49;;;;;;;8.45;3.85;;;;;;;1.00;71.61;100122.44;4973946;28;20064;-57
2023/03/06 05:55:15;;;;;;;6.75;3.65;;;;;;;1.04;71.78;100116.28;4971887;28;20083;-53
2023/03/06 05:57:41;;;;;;;8.55;2.90;;;;;;;1.10;72.05;100110.94;4977071;28;20049;-52
2023/03/06 06:00:08;;;;;;;10.63;3.35;;;;;;;1.14;71.87;100117.72;4974329;28;20043;-51
2023/03/06 06:02:34;;;;;;;8.05;3.80;;;;;;;1.18;71.48;100121.09;4969370;28;20060;-54
2023/03/06 06:05:01;;;;;;;7.93;3.05;;;;;;;1.21;71.33;100119.25;4973547;28;20041;-51
2023/03/06 06:07:28;;;;;;;10.90;3.53;;;;;;;1.21;71.21;100108.06;4968114;28;20512;-53
2023/03/06 06:09:54;;;;;;;6.10;3.20;;;;;;;1.23;71.36;100121.78;4980964;28;20059;-56
2023/03/06 06:12:19;;;;;;;13.00;4.68;;;;;;;1.21;71.44;100119.25;4976551;28;20029;-51
2023/03/06 06:14:45;;;;;;;10.43;3.75;;;;;;;1.21;71.35;100119.25;4978718;28;20066;-53
2023/03/06 06:17:11;;;;;;;13.32;4.07;;;;;;;1.24;71.57;100117.47;4971085;28;20081;-54
2023/03/06 06:19:37;;;;;;;12.85;4.43;;;;;;;1.24;70.99;100117.47;4980402;28;20053;-51
2023/03/06 06:22:04;;;;;;;8.15;3.97;;;;;;;1.21;71.74;100124.44;4973652;28;20056;-52
2023/03/06 06:24:30;;;;;;;11.15;4.25;;;;;;;1.20;71.05;100122.72;4980232;28;20030;-55
2023/03/06 06:26:58;;;;;;;8.18;4.85;;;;;;;1.24;71.76;100127.84;4988372;28;20038;-53
2023/03/06 06:29:24;;;;;;;14.02;5.55;;;;;;;1.28;71.39;100132.88;4981110;28;20045;-56
2023/03/06 06:31:51;;;;;;;12.90;5.00;;;;;;;1.28;71.42;100129.44;4978918;28;20045;-53
2023/03/06 06:34:16;;;;;;;16.33;5.25;;;;;;;1.31;71.30;100126.75;5000607;23;20516;-53
2023/03/06 06:36:42;;;;;;;13.05;5.22;;;;;;;1.36;71.54;100132.66;4978926;28;20130;-56
2023/03/06 06:39:09;;;;;;;10.57;4.90;;;;;;;1.41;71.27;100124.72;4971308;28;20047;-57
2023/03/06 06:41:35;;;;;;;15.07;5.95;;;;;;;1.35;71.11;100137.00;4973171;28;20022;-54
2023/03/06 06:44:06;;;;;;;10.82;4.72;;;;;;;1.41;71.00;100135.09;4981931;28;20057;-55
2023/03/06 06:46:33;;;;;;;11.43;4.72;;;;;;;1.39;71.41;100136.88;4976172;28;20042;-56
2023/03/06 06:49:01;;;;;;;11.48;5.18;;;;;;;1.40;71.28;100138.59;4980442;28;20386;-55
2023/03/06 06:51:28;;;;;;;11.25;4.53;;;;;;;1.39;71.26;100127.38;4984260;28;20165;-57
2023/03/06 06:53:54;;;;;;;14.90;5.20;;;;;;;1.43;71.22;100144.56;4988259;28;24048;-55
2023/03/06 06:56:19;;;;;;;13.85;4.85;;;;;;;1.36;71.54;100140.44;4973787;28;20453;-54
2023/03/06 06:58:45;;;;;;;9.82;4.95;;;;;;;1.40;71.47;100138.59;4986720;28;20463;-54
2023/03/06 07:01:12;;;;;;;9.38;4.57;;;;;;;1.38;71.54;100130.88;4976556;28;20034;-53
2023/03/06 07:03:38;;;;;;;12.77;5.05;;;;;;;1.43;71.29;100128.13;4984192;28;20031;-54
2023/03/06 07:06:05;;;;;;;6.30;2.85;;;;;;;1.47;71.36;100129.75;4973224;28;20053;-57
2023/03/06 07:08:30;;;;;;;11.48;4.88;;;;;;;1.54;71.40;100120.88;4977415;28;20105;-52
2023/03/06 07:10:57;;;;;;;11.73;5.70;;;;;;;1.58;71.38;100116.47;4976702;28;20125;-53
2023/03/06 07:13:22;;;;;;;11.48;5.35;;;;;;;1.61;71.22;100124.13;4979485;28;20133;-54
2023/03/06 07:15:47;;;;;;;15.43;4.95;;;;;;;1.64;71.08;100129.22;4979838;28;20065;-55
2023/03/06 07:18:13;;;;;;;13.13;5.20;;;;;;;1.64;71.42;100127.50;4982738;28;20032;-54
2023/03/06 07:20:38;;;;;;;9.52;4.72;;;;;;;1.68;71.57;100134.28;4983525;28;20086;-57
2023/03/06 07:23:07;;;;;;;9.07;4.07;;;;;;;1.72;71.14;100129.88;4975651;28;20084;-56
2023/03/06 07:25:32;;;;;;;10.70;4.90;;;;;;;1.71;70.91;100132.47;4975918;28;20030;-58
2023/03/06 07:27:58;;;;;;;12.50;4.20;;;;;;;1.71;70.91;100129.88;4978312;28;20126;-56
2023/03/06 07:30:24;;;;;;;9.32;4.05;;;;;;;1.67;70.99;100136.94;4987788;28;20036;-53
2023/03/06 07:32:57;;;;;;;8.02;3.60;;;;;;;1.62;71.23;100147.44;4980008;28;20115;-59
2023/03/06 07:35:24;;;;;;;10.15;4.43;;;;;;;1.61;71.62;100139.69;4977702;28;20480;-54
2023/03/06 07:37:50;;;;;;;7.28;3.42;;;;;;;1.62;71.19;100142.25;4978346;28;20050;-54
2023/03/06 07:40:16;;;;;;;6.00;3.10;;;;;;;1.65;70.97;100141.31;4984900;28;20428;-53
2023/03/06 07:42:42;;;;;;;9.38;4.10;;;;;;;1.61;71.30;100142.28;4984733;28;20431;-54
2023/03/06 07:45:08;;;;;;;6.07;2.47;;;;;;;1.63;71.46;100146.56;4972509;28;20060;-52
2023/03/06 07:47:34;;;;;;;8.05;3.80;;;;;;;1.71;71.36;100138.53;4984653;28;20034;-53
2023/03/06 07:50:02;;;;;;;14.05;5.15;;;;;;;1.84;71.21;100141.59;4986349;28;20370;-52
2023/03/06 07:52:28;;;;;;;10.02;3.80;;;;;;;1.90;70.69;100137.94;4986626;28;20109;-53
2023/03/06 07:54:53;;;;;;;7.25;3.38;;;;;;;1.85;70.61;100132.91;4968786;28;20049;-53
2023/03/06 07:57:19;;;;;;;10.70;4.05;;;;;;;1.87;70.96;100132.88;4983900;28;20124;-54
2023/03/06 07:59:44;;;;;;;6.85;4.05;;;;;;;1.89;70.80;100138.88;4975327;28;20499;-57
2023/03/06 08:02:11;;;;;;;11.10;4.50;;;;;;;1.95;71.31;100138.66;4973736;28;20564;-53
2023/03/06 08:04:36;;;;;;;58.25;26.30;;;;;;;1.97;70.76;100139.47;4982894;28;20035;-56
2023/03/06 08:07:02;;;;;;;14.40;5.70;;;;;;;2.00;70.38;100141.97;4978839;28;20054;-54
2023/03/06 08:09:28;;;;;;;9.15;3.67;;;;;;;2.07;70.69;100135.66;4981638;28;20034;-56
2023/03/06 08:11:53;;;;;;;7.47;2.78;;;;;;;2.20;70.43;100130.06;4980933;28;20073;-57
2023/03/06 08:14:19;;;;;;;8.77;3.45;;;;;;;2.28;70.21;100138.47;4991927;28;20481;-54
2023/03/06 08:16:44;;;;;;;9.77;4.20;;;;;;;2.36;69.95;100144.25;4981381;28;20241;-56
2023/03/06 08:19:10;;;;;;;11.32;3.40;;;;;;;2.38;69.75;100145.03;4976008;28;20047;-54
2023/03/06 08:21:36;;;;;;;10.73;3.55;;;;;;;2.39;69.53;100133.75;4986020;28;20022;-56
2023/03/06 08:24:01;;;;;;;8.48;3.30;;;;;;;2.43;70.09;100142.28;4978453;28;20435;-56
2023/03/06 08:26:29;;;;;;;5.45;2.67;;;;;;;2.49;69.77;100144.69;4987316;28;20026;-56
2023/03/06 08:28:57;;;;;;;8.32;2.95;;;;;;;2.48;69.89;100144.75;4987245;28;20488;-56
2023/03/06 08:31:24;;;;;;;9.18;3.33;;;;;;;2.56;69.56;100146.19;4990509;28;20038;-56
2023/03/06 08:33:49;;;;;;;6.10;2.38;;;;;;;2.61;69.36;100148.63;4990988;28;20038;-57
2023/03/06 08:36:15;;;;;;;8.32;3.50;;;;;;;2.63;69.20;100149.44;4989121;28;20388;-57
2023/03/06 08:38:40;;;;;;;6.63;2.88;;;;;;;2.76;69.15;100151.59;4975877;28;20049;-57
2023/03/06 08:41:06;;;;;;;4.78;2.78;;;;;;;2.82;69.10;100153.97;4984879;28;20053;-56
2023/03/06 08:43:32;;;;;;;7.00;2.60;;;;;;;2.86;68.96;100155.56;4986039;28;20058;-55
2023/03/06 08:45:58;;;;;;;4.78;2.45;;;;;;;2.89;68.96;100145.06;4981969;28;20056;-56
2023/03/06 08:48:23;;;;;;;8.02;1.77;;;;;;;2.89;68.49;100152.88;4984431;28;20034;-57
2023/03/06 08:50:49;;;;;;;5.18;2.75;;;;;;;2.96;68.40;100159.53;4985807;28;20459;-53
2023/03/06 08:53:16;;;;;;;12.20;5.07;;;;;;;3.02;68.01;100156.72;4986993;28;20066;-54
2023/03/06 08:55:41;;;;;;;11.55;4.95;;;;;;;3.15;68.01;100158.88;4975739;28;20038;-54
2023/03/06 08:58:07;;;;;;;7.45;3.20;;;;;;;3.37;67.49;100163.31;4986696;28;20088;-57
2023/03/06 09:00:33;;;;;;;8.35;3.10;;;;;;;3.47;66.95;100156.84;4979857;28;20034;-53
2023/03/06 09:02:59;;;;;;;8.63;3.20;;;;;;;3.66;66.74;100157.84;4984848;28;20151;-56
2023/03/06 09:05:24;;;;;;;7.88;4.05;;;;;;;3.76;66.66;100153.13;4983214;28;20527;-57
2023/03/06 09:07:50;;;;;;;4.55;2.60;;;;;;;3.92;66.06;100153.38;4982081;28;20130;-53
2023/03/06 09:10:18;;;;;;;8.18;2.92;;;;;;;4.04;65.89;100165.06;4988265;28;20424;-57
2023/03/06 09:12:44;;;;;;;10.75;4.15;;;;;;;4.11;65.85;100160.47;4978453;28;20493;-56
2023/03/06 09:15:11;;;;;;;5.47;3.20;;;;;;;4.17;65.64;100162.78;4974202;28;20041;-57
2023/03/06 09:17:37;;;;;;;8.88;3.65;;;;;;;4.23;65.45;100170.38;4986140;28;20089;-53
2023/03/06 09:20:04;;;;;;;6.55;3.35;;;;;;;4.21;65.15;100168.75;4974122;28;20081;-55
2023/03/06 09:22:30;;;;;;;10.63;3.75;;;;;;;4.26;65.21;100167.66;4982854;28;20067;-52
2023/03/06 09:24:56;;;;;;;9.32;2.80;;;;;;;4.26;65.10;100167.66;4989413;28;20101;-53
2023/03/06 09:27:22;;;;;;;6.63;3.33;;;;;;;4.15;65.33;100168.97;4981398;28;20034;-53
2023/03/06 09:29:47;;;;;;;4.22;2.00;;;;;;;4.11;65.50;100173.47;4972311;28;20465;-57
2023/03/06 09:32:13;;;;;;;6.40;1.98;;;;;;;4.12;65.10;100167.34;4981733;28;20057;-53
2023/03/06 09:34:39;;;;;;;6.25;2.97;;;;;;;4.17;65.29;100161.97;4976807;28;20126;-54
2023/03/06 09:37:04;;;;;;;9.52;3.45;;;;;;;4.19;65.20;100167.97;4978799;28;20593;-52
2023/03/06 09:39:30;;;;;;;13.07;6.75;;;;;;;4.06;65.21;100165.00;4977078;28;20061;-53
2023/03/06 09:41:57;;;;;;;10.02;4.28;;;;;;;3.88;65.65;100164.81;4986473;28;20022;-54
2023/03/06 09:44:34;;;;;;;5.28;2.17;;;;;;;3.75;65.54;100161.00;4981453;28;24202;-52
2023/03/06 09:47:44;;;;;;;4.68;2.22;;;;;;;3.59;65.74;100153.78;4981982;28;20038;-52
2023/03/06 09:50:28;;;;;;;9.48;2.38;;;;;;;3.53;66.05;100167.03;4991201;28;20388;-55
2023/03/06 09:53:17;;;;;;;2.78;1.73;;;;;;;3.51;65.97;100167.06;4977605;28;20052;-55
2023/03/06 09:55:49;;;;;;;3.63;1.90;;;;;;;3.54;65.82;100162.66;4980523;28;20026;-56
2023/03/06 09:58:28;;;;;;;4.65;1.98;;;;;;;3.63;65.60;100162.31;4981749;28;20481;-54
2023/03/06 10:01:16;;;;;;;5.35;1.85;;;;;;;3.55;65.23;100159.16;4976823;28;20484;-53
2023/03/06 10:03:53;;;;;;;7.18;1.90;;;;;;;3.56;65.51;100161.69;4975684;28;20061;-56
2023/03/06 10:06:47;;;;;;;12.98;2.45;;;;;;;3.51;65.17;100161.88;4975341;28;20083;-56
2023/03/06 10:09:22;;;;;;;5.22;2.03;;;;;;;3.50;65.44;100161.94;4973998;28;20086;-56
2023/03/06 10:11:53;;;;;;;4.65;2.10;;;;;;;3.45;65.51;100159.50;4976902;28;20484;-55
2023/03/06 10:14:33;;;;;;;6.97;2.20;;;;;;;3.49;65.37;100155.03;4977723;28;20033;-54
2023/03/06 10:17:00;;;;;;;4.10;1.75;;;;;;;3.57;64.95;100158.19;4980327;28;20031;-54
2023/03/06 10:19:36;;;;;;;3.55;1.70;;;;;;;3.68;64.47;100149.13;4981575;28;20033;-52
2023/03/06 10:22:33;;;;;;;3.78;1.83;;;;;;;3.82;63.91;100152.06;4975861;28;20029;-53
2023/03/06 10:25:16;;;;;;;5.57;1.95;;;;;;;3.96;63.71;100148.88;4977752;28;20026;-53
2023/03/06 10:27:48;;;;;;;4.68;1.83;;;;;;;3.94;63.53;100155.91;4990497;28;20433;-53
2023/03/06 10:30:17;;;;;;;2.80;1.70;;;;;;;3.85;63.52;100151.94;4972640;28;20135;-56
2023/03/06 10:32:57;;;;;;;3.20;1.55;;;;;;;3.75;63.36;100158.38;4974479;28;20022;-53
2023/03/06 10:35:47;;;;;;;4.15;2.10;;;;;;;3.58;63.12;100152.06;4979430;28;20038;-54
2023/03/06 10:38:24;;;;;;;3.25;1.75;;;;;;;3.51;63.31;100148.84;4979599;28;20045;-53
2023/03/06 10:41:06;;;;;;;4.38;2.00;;;;;;;3.38;63.05;100146.78;4984126;28;20030;-54
2023/03/06 10:43:36;;;;;;;6.25;1.88;;;;;;;3.26;63.36;100154.13;4978468;28;20488;-53
2023/03/06 10:46:02;;;;;;;5.97;1.20;;;;;;;3.18;63.32;100150.97;4979205;28;20026;-54
2023/03/06 10:48:29;;;;;;;4.20;1.45;;;;;;;3.19;63.41;100158.69;4983445;28;20093;-54
2023/03/06 10:51:23;;;;;;;7.25;2.30;;;;;;;3.22;63.08;100147.34;4974425;28;20034;-53
2023/03/06 10:53:58;;;;;;;4.68;1.75;;;;;;;3.18;62.86;100154.41;4985943;28;20101;-53
2023/03/06 10:56:32;;;;;;;3.92;1.90;;;;;;;3.17;62.96;100164.88;4972551;28;20030;-52
2023/03/06 10:59:10;;;;;;;4.70;2.15;;;;;;;3.10;63.15;100153.00;4976794;28;20022;-53
2023/03/06 11:01:36;;;;;;;7.72;1.98;;;;;;;3.14;63.14;100149.38;4977930;28;20044;-55
2023/03/06 11:04:23;;;;;;;7.32;2.55;;;;;;;3.16;63.07;100150.16;4977547;28;20026;-53
2023/03/06 11:07:03;;;;;;;3.22;1.60;;;;;;;3.17;62.34;100151.88;4976532;28;20038;-57
2023/03/06 11:09:29;;;;;;;3.15;2.13;;;;;;;3.16;62.50;100157.97;4974053;28;20041;-56
2023/03/06 11:12:27;;;;;;;4.35;1.60;;;;;;;3.13;61.88;100163.28;4978842;28;20041;-53
2023/03/06 11:15:12;;;;;;;5.82;1.52;;;;;;;3.12;61.57;100159.84;4978981;28;20038;-53
2023/03/06 11:17:59;;;;;;;6.10;1.83;;;;;;;3.14;61.70;100158.03;4976448;28;20034;-53
2023/03/06 11:20:33;;;;;;;6.00;2.00;;;;;;;3.15;61.88;100151.94;4979718;28;20052;-53
2023/03/06 11:23:14;;;;;;;4.07;1.80;;;;;;;3.12;61.94;100156.38;4986349;28;20028;-55
2023/03/06 11:25:43;;;;;;;2.93;1.73;;;;;;;3.02;61.13;100148.91;4977175;28;20033;-52
2023/03/06 11:28:17;;;;;;;3.17;1.60;;;;;;;3.00;61.43;100149.88;4976700;28;20026;-53
2023/03/06 11:30:51;;;;;;;5.28;1.80;;;;;;;2.95;61.54;100155.22;4981809;28;20038;-53
2023/03/06 11:33:35;;;;;;;2.63;1.48;;;;;;;2.97;61.77;100145.63;4986941;28;20085;-52
2023/03/06 11:36:14;;;;;;;3.95;1.70;;;;;;;2.97;61.89;100140.44;4980168;28;20026;-53